Time;durP1;ratioP1;P1;durP2;ratioP2;P2;SDS_P1;SDS_P2;PMS_P1;PMS_P2;Temp;Humidity;BMP_temperature;BMP_pressure;BME280_temperature;BME280_humidity;BME280_pressure;Samples;Min_cycle;Max_cycle;Signal;HPM_P1;HPM_P2
2022/07/06 00:00:06;;;;;;;374.40;305.00;;;;;;;25.74;49.49;99466.16;341925;28;1794;-72
2022/07/06 00:00:17;;;;;;;370.13;297.23;;;;;;;25.76;49.68;99472.22;341117;29;1118;-72
2022/07/06 00:00:27;;;;;;;369.30;296.83;;;;;;;25.77;49.25;99469.38;342359;28;1279;-72
2022/07/06 00:00:37;;;;;;;369.23;295.47;;;;;;;25.74;49.34;99463.50;342456;28;1040;-72
2022/07/06 00:00:48;;;;;;;367.45;299.33;;;;;;;25.73;49.75;99469.84;343780;28;953;-72
2022/07/06 00:00:58;;;;;;;366.00;300.93;;;;;;;25.74;49.66;99463.50;343749;28;1180;-72
2022/07/06 00:01:09;;;;;;;363.95;296.95;;;;;;;25.73;49.65;99467.19;343702;28;1928;-72
2022/07/06 00:01:19;;;;;;;365.67;296.60;;;;;;;25.74;49.39;99471.53;345060;28;1770;-72
2022/07/06 00:01:30;;;;;;;367.88;298.25;;;;;;;25.75;49.45;99462.50;344906;28;2045;-72
2022/07/06 00:01:40;;;;;;;367.90;300.83;;;;;;;25.74;49.57;99466.16;343339;28;940;-72
2022/07/06 00:01:51;;;;;;;368.43;302.83;;;;;;;25.76;49.57;99469.53;340998;29;1319;-72
2022/07/06 00:02:01;;;;;;;368.97;303.10;;;;;;;25.76;49.62;99464.16;343585;28;920;-72
2022/07/06 00:02:12;;;;;;;372.58;306.40;;;;;;;25.77;49.50;99471.22;342494;28;1456;-72
2022/07/06 00:02:22;;;;;;;372.77;306.17;;;;;;;25.76;49.59;99469.53;342502;28;991;-72
2022/07/06 00:02:33;;;;;;;369.05;304.27;;;;;;;25.77;49.54;99469.38;343447;28;924;-72
2022/07/06 00:02:43;;;;;;;369.03;305.67;;;;;;;25.77;49.50;99472.06;343997;28;816;-72
2022/07/06 00:02:53;;;;;;;369.00;305.10;;;;;;;25.78;49.42;99468.38;343607;28;1405;-72
2022/07/06 00:03:04;;;;;;;370.57;304.80;;;;;;;25.77;49.68;99472.06;343878;28;955;-72
2022/07/06 00:03:14;;;;;;;369.77;302.73;;;;;;;25.77;49.48;99474.72;343818;28;937;-72
2022/07/06 00:03:25;;;;;;;369.02;302.98;;;;;;;25.77;49.77;99465.84;343853;28;931;-72
2022/07/06 00:03:35;;;;;;;370.03;304.00;;;;;;;25.76;49.58;99465.00;343736;28;1960;-72
2022/07/06 00:03:45;;;;;;;368.60;301.58;;;;;;;25.71;49.70;99471.84;343840;28;891;-72
2022/07/06 00:03:56;;;;;;;371.07;302.60;;;;;;;25.66;49.69;99469.66;344897;28;1444;-72
2022/07/06 00:04:06;;;;;;;370.83;301.73;;;;;;;25.64;49.60;99468.16;345261;28;880;-72
2022/07/06 00:04:17;;;;;;;372.43;300.33;;;;;;;25.60;49.96;99474.81;344982;28;1418;-72
2022/07/06 00:04:28;;;;;;;370.92;299.23;;;;;;;25.59;49.77;99471.28;343751;28;1855;-72
2022/07/06 00:04:38;;;;;;;371.65;297.10;;;;;;;25.60;49.68;99475.63;342472;28;846;-72
2022/07/06 00:04:49;;;;;;;371.77;300.50;;;;;;;25.61;50.07;99474.63;341113;29;1233;-72
2022/07/06 00:04:59;;;;;;;373.47;303.80;;;;;;;25.62;49.95;99472.78;343869;28;814;-72
2022/07/06 00:05:10;;;;;;;372.48;304.10;;;;;;;25.63;50.18;99474.47;343784;28;902;-72
2022/07/06 00:05:20;;;;;;;370.70;305.98;;;;;;;25.63;50.20;99469.94;345053;28;1381;-72
2022/07/06 00:05:31;;;;;;;370.23;307.07;;;;;;;25.62;50.22;99475.47;345178;28;802;-72
2022/07/06 00:05:41;;;;;;;369.13;305.73;;;;;;;25.62;50.18;99470.97;343498;28;2439;-72
2022/07/06 00:05:51;;;;;;;370.52;304.88;;;;;;;25.62;50.33;99479.00;343659;28;1667;-72
2022/07/06 00:06:02;;;;;;;373.20;304.83;;;;;;;25.60;50.62;99477.47;343798;28;885;-72
2022/07/06 00:06:12;;;;;;;372.70;304.60;;;;;;;25.56;50.65;99473.47;342899;28;1831;-72
2022/07/06 00:06:23;;;;;;;372.70;304.10;;;;;;;25.50;50.98;99475.78;343298;28;2039;-72
2022/07/06 00:06:33;;;;;;;371.25;303.85;;;;;;;25.44;51.42;99471.06;343497;28;1212;-72
2022/07/06 00:06:44;;;;;;;373.40;309.23;;;;;;;25.40;51.40;99467.03;344286;28;894;-72
2022/07/06 00:06:54;;;;;;;374.45;311.52;;;;;;;25.39;51.48;99476.06;343492;28;954;-72
2022/07/06 00:07:05;;;;;;;376.50;312.70;;;;;;;25.40;51.65;99479.59;343820;28;932;-72
2022/07/06 00:07:15;;;;;;;380.10;314.70;;;;;;;25.40;52.00;99469.72;344982;28;1438;-72
2022/07/06 00:07:26;;;;;;;380.30;312.70;;;;;;;25.42;51.62;99477.59;346441;28;1459;-71
2022/07/06 00:07:36;;;;;;;378.42;309.63;;;;;;;25.44;51.83;99467.56;345127;28;986;-71
2022/07/06 00:07:46;;;;;;;374.40;304.00;;;;;;;25.45;51.99;99467.41;343681;28;1196;-71
2022/07/06 00:07:57;;;;;;;374.00;302.53;;;;;;;25.44;52.00;99465.72;342172;28;1887;-71
2022/07/06 00:08:07;;;;;;;374.52;304.13;;;;;;;25.45;51.91;99475.44;341058;29;889;-71
2022/07/06 00:08:18;;;;;;;377.13;308.43;;;;;;;25.47;51.96;99470.75;342426;28;810;-71
2022/07/06 00:08:28;;;;;;;377.70;312.60;;;;;;;25.49;51.89;99474.13;343709;28;960;-71
2022/07/06 00:08:38;;;;;;;377.17;310.20;;;;;;;25.48;51.81;99471.59;344974;28;871;-71
2022/07/06 00:08:49;;;;;;;376.63;310.30;;;;;;;25.43;51.89;99473.91;345094;28;832;-71
2022/07/06 00:08:59;;;;;;;377.57;312.20;;;;;;;25.41;52.09;99474.06;345006;28;1327;-71
2022/07/06 00:09:10;;;;;;;383.50;313.83;;;;;;;25.42;52.00;99474.91;345106;28;820;-71
2022/07/06 00:09:20;;;;;;;383.93;311.57;;;;;;;25.43;52.38;99474.75;345187;28;865;-71
2022/07/06 00:09:31;;;;;;;380.45;307.40;;;;;;;25.43;52.28;99473.91;346534;28;951;-71
2022/07/06 00:09:41;;;;;;;375.40;306.80;;;;;;;25.42;52.26;99469.56;340555;28;1983;-71
2022/07/06 00:09:52;;;;;;;380.70;310.45;;;;;;;25.41;52.11;99471.41;342358;28;2158;-71
2022/07/06 00:10:03;;;;;;;382.73;314.57;;;;;;;25.43;52.27;99473.91;342392;28;1171;-71
2022/07/06 00:10:13;;;;;;;382.40;316.83;;;;;;;25.43;52.15;99474.75;342483;28;874;-71
2022/07/06 00:10:24;;;;;;;377.38;314.67;;;;;;;25.43;52.07;99469.41;341161;29;1356;-71
2022/07/06 00:10:34;;;;;;;377.03;316.13;;;;;;;25.44;52.19;99471.06;342384;28;951;-71
2022/07/06 00:10:44;;;;;;;378.40;315.70;;;;;;;25.44;52.71;99471.06;341029;28;1517;-71
2022/07/06 00:10:55;;;;;;;379.35;316.88;;;;;;;25.46;52.04;99468.25;345057;28;1323;-71
2022/07/06 00:11:05;;;;;;;377.67;310.83;;;;;;;25.49;52.22;99468.75;345186;28;887;-71
2022/07/06 00:11:16;;;;;;;378.35;309.42;;;;;;;25.50;52.23;99469.59;342302;28;1734;-71
2022/07/06 00:11:26;;;;;;;376.53;307.13;;;;;;;25.51;52.22;99479.31;342005;28;2013;-71
2022/07/06 00:11:37;;;;;;;376.48;307.65;;;;;;;25.52;52.32;99476.47;342423;28;860;-71
2022/07/06 00:11:47;;;;;;;374.87;307.83;;;;;;;25.51;52.26;99466.75;340962;28;1172;-71
2022/07/06 00:11:57;;;;;;;375.40;307.98;;;;;;;25.56;52.18;99473.47;341645;28;1228;-71
2022/07/06 00:12:08;;;;;;;374.33;306.80;;;;;;;25.56;51.91;99473.47;343779;28;1277;-71
2022/07/06 00:12:19;;;;;;;373.15;307.73;;;;;;;25.55;52.17;99469.13;343717;28;1087;-71
2022/07/06 00:12:29;;;;;;;373.93;306.83;;;;;;;25.52;52.24;99471.13;343737;28;1298;-71
2022/07/06 00:12:40;;;;;;;375.88;311.70;;;;;;;25.53;52.25;99466.59;343835;28;872;-71
2022/07/06 00:12:50;;;;;;;377.53;314.00;;;;;;;25.52;52.30;99463.06;343786;28;1203;-71
2022/07/06 00:13:00;;;;;;;375.83;316.25;;;;;;;25.53;52.48;99470.13;344001;28;1259;-71
2022/07/06 00:13:11;;;;;;;376.73;315.23;;;;;;;25.52;52.57;99467.59;342328;28;1480;-71
2022/07/06 00:13:21;;;;;;;375.73;310.90;;;;;;;25.48;52.83;99472.44;343767;28;813;-71
2022/07/06 00:13:31;;;;;;;375.38;310.20;;;;;;;25.38;53.32;99465.53;343746;28;1105;-71
2022/07/06 00:13:42;;;;;;;373.70;310.93;;;;;;;25.30;53.43;99463.63;345133;28;903;-71
2022/07/06 00:13:52;;;;;;;373.88;311.67;;;;;;;25.20;53.80;99463.75;343685;28;1445;-71
2022/07/06 00:14:03;;;;;;;375.97;311.13;;;;;;;25.17;53.74;99463.22;342362;28;880;-71
2022/07/06 00:14:13;;;;;;;375.85;307.77;;;;;;;25.13;54.12;99468.06;343340;28;1187;-71
2022/07/06 00:14:24;;;;;;;377.73;308.00;;;;;;;25.13;54.06;99467.22;346487;28;1322;-71
2022/07/06 00:14:34;;;;;;;378.35;310.67;;;;;;;25.15;53.84;99467.91;346597;28;852;-71
2022/07/06 00:14:45;;;;;;;381.20;312.93;;;;;;;25.16;54.19;99466.91;343023;28;1985;-71
2022/07/06 00:14:55;;;;;;;381.40;317.23;;;;;;;25.17;54.19;99465.91;339838;29;1249;-71
2022/07/06 00:15:05;;;;;;;380.55;316.13;;;;;;;25.17;54.18;99469.44;339713;29;1358;-72
2022/07/06 00:15:16;;;;;;;379.90;316.53;;;;;;;25.16;53.88;99466.91;339871;29;1142;-72
2022/07/06 00:15:26;;;;;;;381.15;313.13;;;;;;;25.16;54.26;99464.22;339962;29;1695;-72
2022/07/06 00:15:37;;;;;;;380.60;315.00;;;;;;;25.17;54.49;99469.44;342583;28;1042;-72
2022/07/06 00:15:47;;;;;;;376.95;313.50;;;;;;;25.16;54.53;99461.53;342408;28;1321;-72
2022/07/06 00:15:58;;;;;;;376.17;314.40;;;;;;;25.13;54.02;99462.72;342533;28;782;-72
2022/07/06 00:16:08;;;;;;;376.38;310.45;;;;;;;25.11;54.51;99469.25;342558;28;982;-72
2022/07/06 00:16:18;;;;;;;378.90;310.33;;;;;;;25.08;54.93;99462.38;342568;28;1030;-72
2022/07/06 00:16:29;;;;;;;380.73;309.55;;;;;;;25.08;54.65;99464.22;341809;28;2284;-71
2022/07/06 00:16:39;;;;;;;379.53;311.80;;;;;;;25.11;54.90;99463.91;343814;28;1267;-71
2022/07/06 00:16:50;;;;;;;381.00;316.60;;;;;;;25.09;54.84;99465.88;343845;28;1375;-71
2022/07/06 00:17:00;;;;;;;378.73;314.20;;;;;;;25.06;54.78;99463.53;343836;28;814;-71
2022/07/06 00:17:10;;;;;;;381.47;313.47;;;;;;;25.06;54.80;99463.53;342438;28;2150;-71
2022/07/06 00:17:21;;;;;;;379.13;313.80;;;;;;;25.00;54.99;99466.84;343681;28;1407;-71
2022/07/06 00:17:31;;;;;;;381.03;316.97;;;;;;;24.97;55.02;99472.50;343868;28;1017;-71
2022/07/06 00:17:42;;;;;;;378.75;316.70;;;;;;;24.97;55.38;99473.34;343757;28;1516;-71
2022/07/06 00:17:52;;;;;;;378.87;316.03;;;;;;;24.98;55.19;99458.13;342313;28;997;-71
2022/07/06 00:18:03;;;;;;;380.13;318.67;;;;;;;24.95;55.32;99463.75;343844;28;857;-71
2022/07/06 00:18:13;;;;;;;382.17;317.67;;;;;;;24.96;55.37;99466.31;342531;28;1949;-72
2022/07/06 00:18:23;;;;;;;380.87;313.83;;;;;;;24.98;55.38;99468.84;341086;28;1270;-72
2022/07/06 00:18:34;;;;;;;380.27;313.02;;;;;;;24.97;55.23;99468.00;341901;28;1185;-72
2022/07/06 00:18:44;;;;;;;379.80;315.40;;;;;;;24.94;55.28;99462.06;343886;28;1338;-71
2022/07/06 00:18:55;;;;;;;380.33;320.30;;;;;;;24.88;55.40;99464.38;343632;28;1268;-71
2022/07/06 00:19:05;;;;;;;380.53;320.43;;;;;;;24.85;55.56;99464.69;342481;28;971;-71
2022/07/06 00:19:16;;;;;;;381.40;324.10;;;;;;;24.82;55.82;99454.31;343813;28;857;-71
2022/07/06 00:19:26;;;;;;;382.27;323.40;;;;;;;24.84;55.88;99467.53;343657;28;1207;-71
2022/07/06 00:19:36;;;;;;;382.23;323.23;;;;;;;24.85;56.04;99466.53;343802;28;1371;-71
2022/07/06 00:19:47;;;;;;;381.55;322.65;;;;;;;24.90;55.94;99460.72;344133;28;2449;-71
2022/07/06 00:19:57;;;;;;;381.37;324.60;;;;;;;24.88;55.75;99464.38;342427;28;989;-71
2022/07/06 00:20:08;;;;;;;382.27;325.85;;;;;;;24.90;55.60;99468.75;341233;29;928;-71
2022/07/06 00:20:18;;;;;;;379.20;320.08;;;;;;;24.94;55.81;99473.63;341140;29;834;-71
2022/07/06 00:20:29;;;;;;;378.27;320.77;;;;;;;24.96;55.87;99470.81;342476;28;853;-71
2022/07/06 00:20:39;;;;;;;378.37;319.53;;;;;;;24.96;55.64;99473.50;343455;28;2085;-72
2022/07/06 00:20:50;;;;;;;379.52;320.77;;;;;;;24.98;55.38;99474.19;343786;28;901;-72
2022/07/06 00:21:00;;;;;;;378.93;319.63;;;;;;;24.98;55.67;99458.97;343779;28;1350;-72
2022/07/06 00:21:10;;;;;;;379.58;323.00;;;;;;;25.02;55.40;99464.84;345193;28;883;-72
2022/07/06 00:21:21;;;;;;;379.27;320.37;;;;;;;25.02;55.33;99462.16;346404;28;1195;-72
2022/07/06 00:21:31;;;;;;;379.42;319.85;;;;;;;25.04;55.38;99462.84;342155;28;2928;-72
2022/07/06 00:21:42;;;;;;;378.90;320.77;;;;;;;25.06;55.50;99466.22;342955;28;1398;-72
2022/07/06 00:21:52;;;;;;;379.53;325.90;;;;;;;25.06;55.79;99469.72;345055;28;1264;-72
2022/07/06 00:22:03;;;;;;;379.08;322.48;;;;;;;25.03;56.04;99469.19;343834;28;860;-72
2022/07/06 00:22:13;;;;;;;379.43;321.30;;;;;;;25.03;55.88;99469.19;342481;28;912;-72
2022/07/06 00:22:23;;;;;;;378.48;315.83;;;;;;;24.98;56.04;99469.66;343752;28;1983;-72
2022/07/06 00:22:34;;;;;;;381.10;318.00;;;;;;;24.98;55.66;99472.34;342395;28;908;-72
2022/07/06 00:22:44;;;;;;;381.50;315.77;;;;;;;24.99;56.00;99471.34;343882;28;1148;-72
2022/07/06 00:22:55;;;;;;;384.20;322.10;;;;;;;24.99;55.88;99466.00;342394;28;1046;-72
2022/07/06 00:23:05;;;;;;;386.70;324.23;;;;;;;24.92;56.44;99470.28;345174;28;1332;-72
2022/07/06 00:23:15;;;;;;;385.03;322.00;;;;;;;24.90;56.65;99466.06;344992;28;911;-72
2022/07/06 00:23:26;;;;;;;380.60;317.53;;;;;;;24.88;56.44;99471.56;345134;28;981;-72
2022/07/06 00:23:36;;;;;;;376.52;313.70;;;;;;;24.84;56.59;99467.53;343663;28;1918;-72
2022/07/06 00:23:47;;;;;;;378.30;319.20;;;;;;;24.77;56.61;99467.31;342483;28;1031;-72
2022/07/06 00:23:57;;;;;;;379.92;320.70;;;;;;;24.74;56.93;99467.63;345021;28;1922;-72
2022/07/06 00:24:07;;;;;;;381.63;323.83;;;;;;;24.74;56.85;99469.47;345171;28;818;-72
2022/07/06 00:24:18;;;;;;;382.40;324.53;;;;;;;24.74;57.27;99469.47;343656;28;1308;-72
2022/07/06 00:24:28;;;;;;;381.50;322.70;;;;;;;24.73;56.75;99465.09;343864;28;838;-72
2022/07/06 00:24:39;;;;;;;380.43;321.57;;;;;;;24.73;57.06;99465.94;342396;28;1446;-72
2022/07/06 00:24:49;;;;;;;381.67;319.67;;;;;;;24.76;56.98;99468.31;342404;28;888;-72
2022/07/06 00:24:59;;;;;;;385.20;326.07;;;;;;;24.79;56.85;99462.66;343700;28;2373;-72
2022/07/06 00:25:10;;;;;;;386.92;328.73;;;;;;;24.79;57.19;99465.31;343771;28;844;-72
2022/07/06 00:25:20;;;;;;;387.33;329.30;;;;;;;24.84;57.04;99468.38;341126;29;863;-72
2022/07/06 00:25:31;;;;;;;383.75;323.05;;;;;;;24.86;56.67;99468.22;341208;29;881;-72
2022/07/06 00:25:41;;;;;;;382.37;324.10;;;;;;;24.90;56.57;99463.38;343558;28;2290;-72
2022/07/06 00:25:52;;;;;;;378.43;321.40;;;;;;;24.93;56.47;99465.75;341089;28;1455;-72
2022/07/06 00:26:02;;;;;;;376.85;319.83;;;;;;;24.94;56.56;99467.44;341173;29;935;-71
2022/07/06 00:26:13;;;;;;;377.43;318.47;;;;;;;24.94;56.96;99468.28;343836;28;910;-71
2022/07/06 00:26:23;;;;;;;381.80;322.67;;;;;;;24.95;56.52;99469.94;344689;28;2032;-71
2022/07/06 00:26:33;;;;;;;382.50;326.43;;;;;;;24.95;56.43;99469.13;345092;28;1070;-71
2022/07/06 00:26:44;;;;;;;383.40;322.35;;;;;;;24.96;56.81;99474.34;342785;28;932;-71
2022/07/06 00:26:55;;;;;;;380.58;319.13;;;;;;;24.97;56.80;99459.13;342455;28;1676;-71
2022/07/06 00:27:05;;;;;;;379.67;315.53;;;;;;;24.98;56.22;99466.16;345168;28;884;-71
2022/07/06 00:27:16;;;;;;;376.73;320.58;;;;;;;24.98;56.48;99463.47;342516;28;976;-71
2022/07/06 00:27:26;;;;;;;376.47;319.07;;;;;;;24.95;56.45;99469.13;342265;28;2031;-71
2022/07/06 00:27:36;;;;;;;376.80;316.40;;;;;;;24.97;56.61;99467.16;341064;29;1286;-71
2022/07/06 00:27:47;;;;;;;376.35;311.90;;;;;;;24.97;56.50;99472.50;343644;28;1371;-71
2022/07/06 00:27:57;;;;;;;376.77;314.33;;;;;;;24.98;56.70;99469.66;342296;28;1179;-71
2022/07/06 00:28:08;;;;;;;376.27;316.17;;;;;;;24.97;56.49;99468.00;342445;28;813;-71
2022/07/06 00:28:18;;;;;;;377.87;319.60;;;;;;;24.99;56.77;99465.16;343659;28;1301;-71
2022/07/06 00:28:28;;;;;;;378.92;321.73;;;;;;;24.98;56.77;99463.47;343307;28;2153;-71
2022/07/06 00:28:39;;;;;;;382.53;322.30;;;;;;;24.98;56.83;99458.97;343566;28;2532;-71
2022/07/06 00:28:49;;;;;;;382.77;323.20;;;;;;;24.97;56.73;99467.16;343690;28;1208;-71
2022/07/06 00:29:00;;;;;;;381.73;318.95;;;;;;;25.00;56.60;99464.16;343790;28;932;-71
2022/07/06 00:29:10;;;;;;;380.73;318.47;;;;;;;24.97;56.54;99468.00;341879;28;1526;-71
2022/07/06 00:29:20;;;;;;;381.08;319.15;;;;;;;24.98;56.66;99458.97;342450;28;939;-71
2022/07/06 00:29:31;;;;;;;380.77;320.37;;;;;;;24.96;56.93;99465.47;342412;28;1100;-71
2022/07/06 00:29:43;;;;;;;376.83;314.85;;;;;;;24.95;56.81;99463.75;342266;28;2468;-71
2022/07/06 00:29:54;;;;;;;380.08;314.08;;;;;;;24.94;56.86;99467.44;342322;28;1509;-71
2022/07/06 00:30:05;;;;;;;381.03;315.60;;;;;;;24.94;57.01;99459.41;342476;28;981;-71
2022/07/06 00:30:15;;;;;;;382.88;317.48;;;;;;;24.95;56.91;99463.75;343665;28;1250;-71
2022/07/06 00:30:25;;;;;;;382.65;318.27;;;;;;;24.95;56.79;99463.75;345134;28;921;-71
2022/07/06 00:30:36;;;;;;;382.43;317.60;;;;;;;24.96;57.05;99462.78;345089;28;920;-71
2022/07/06 00:30:46;;;;;;;381.95;316.95;;;;;;;24.95;57.20;99464.59;341045;29;1918;-71
2022/07/06 00:30:57;;;;;;;373.77;311.00;;;;;;;24.94;57.22;99462.91;342442;28;1271;-71
2022/07/06 00:31:07;;;;;;;369.67;306.03;;;;;;;24.94;56.80;99464.75;342515;28;991;-71
2022/07/06 00:31:17;;;;;;;368.15;300.92;;;;;;;24.95;56.94;99461.09;343695;28;991;-71
2022/07/06 00:31:28;;;;;;;372.90;306.20;;;;;;;24.96;56.89;99465.47;343526;28;2159;-71
2022/07/06 00:31:38;;;;;;;378.13;314.02;;;;;;;24.95;56.89;99461.09;343728;28;956;-71
2022/07/06 00:31:49;;;;;;;379.77;316.50;;;;;;;24.94;56.92;99462.06;343757;28;1019;-71
2022/07/06 00:31:59;;;;;;;378.02;312.67;;;;;;;24.95;56.86;99463.75;343766;28;809;-71
2022/07/06 00:32:11;;;;;;;375.43;311.47;;;;;;;24.96;56.64;99454.75;343705;28;938;-71
2022/07/06 00:32:21;;;;;;;377.67;311.55;;;;;;;24.97;56.51;99456.44;345107;28;950;-71
2022/07/06 00:32:32;;;;;;;379.98;309.77;;;;;;;24.97;56.88;99457.28;344699;28;1548;-71
2022/07/06 00:32:42;;;;;;;379.43;308.63;;;;;;;24.98;56.81;99458.13;342419;28;959;-71
2022/07/06 00:32:53;;;;;;;377.77;309.80;;;;;;;24.97;56.94;99453.75;343723;28;1069;-71
2022/07/06 00:33:04;;;;;;;376.33;312.35;;;;;;;24.98;57.01;99450.09;346407;28;1324;-71
2022/07/06 00:33:14;;;;;;;380.05;317.35;;;;;;;24.98;56.86;99458.97;346464;28;970;-71
2022/07/06 00:33:24;;;;;;;382.80;318.40;;;;;;;24.97;56.80;99453.75;342356;28;1419;-71
2022/07/06 00:33:35;;;;;;;382.55;318.42;;;;;;;24.98;56.62;99450.09;342405;28;975;-71
2022/07/06 00:33:45;;;;;;;382.70;318.37;;;;;;;24.97;56.79;99446.56;345093;28;869;-71
2022/07/06 00:33:56;;;;;;;378.23;316.00;;;;;;;24.95;56.96;99453.88;346272;28;1226;-71
2022/07/06 00:34:06;;;;;;;378.20;313.03;;;;;;;24.97;57.05;99448.41;345125;28;968;-71
2022/07/06 00:34:17;;;;;;;377.27;312.10;;;;;;;24.97;56.89;99445.72;343524;28;1845;-71
2022/07/06 00:34:27;;;;;;;378.83;314.58;;;;;;;24.98;56.63;99447.41;342460;28;818;-71
2022/07/06 00:34:39;;;;;;;379.37;316.23;;;;;;;24.97;56.97;99446.56;342453;28;959;-71
2022/07/06 00:34:49;;;;;;;379.00;313.70;;;;;;;24.98;56.83;99447.41;341004;29;965;-71
2022/07/06 00:35:00;;;;;;;378.75;313.88;;;;;;;24.97;56.87;99448.41;342447;28;994;-71
2022/07/06 00:35:10;;;;;;;375.70;310.93;;;;;;;24.95;56.84;99448.53;342426;28;856;-71
2022/07/06 00:35:20;;;;;;;376.37;310.30;;;;;;;24.96;57.29;99449.41;342405;28;873;-71
2022/07/06 00:35:31;;;;;;;377.77;311.60;;;;;;;24.95;56.95;99445.84;343737;28;968;-71
2022/07/06 00:35:41;;;;;;;380.47;315.80;;;;;;;24.93;57.04;99449.69;341060;29;1276;-71
2022/07/06 00:35:52;;;;;;;381.38;318.58;;;;;;;24.93;56.72;99441.66;342025;28;1944;-71
2022/07/06 00:36:02;;;;;;;383.53;321.50;;;;;;;24.92;56.82;99443.50;339713;29;1524;-71
2022/07/06 00:36:13;;;;;;;382.58;319.05;;;;;;;24.93;57.02;99444.34;342387;28;818;-71
2022/07/06 00:36:23;;;;;;;380.30;315.97;;;;;;;24.92;56.82;99437.28;343641;28;1962;-71
2022/07/06 00:36:33;;;;;;;378.70;309.23;;;;;;;24.92;57.07;99438.13;345443;28;899;-71
2022/07/06 00:36:44;;;;;;;381.27;315.50;;;;;;;24.89;57.29;99443.81;344528;28;1329;-71
2022/07/06 00:36:54;;;;;;;382.30;314.67;;;;;;;24.88;57.29;99442.97;342395;28;824;-71
2022/07/06 00:37:06;;;;;;;381.70;317.98;;;;;;;24.85;57.15;99443.28;342453;28;826;-71
2022/07/06 00:37:16;;;;;;;380.60;317.25;;;;;;;24.83;57.24;99442.59;342100;28;2561;-71
2022/07/06 00:37:27;;;;;;;379.93;317.93;;;;;;;24.83;57.43;99444.44;342412;28;809;-71
2022/07/06 00:37:37;;;;;;;377.92;315.20;;;;;;;24.79;57.36;99446.59;341669;28;1364;-71
2022/07/06 00:37:48;;;;;;;377.13;316.73;;;;;;;24.78;57.48;99444.06;341062;29;940;-71
2022/07/06 00:37:58;;;;;;;379.07;314.60;;;;;;;24.79;57.38;99443.91;342310;28;1504;-71
2022/07/06 00:38:08;;;;;;;379.75;314.73;;;;;;;24.79;57.51;99443.06;343618;28;1223;-71
2022/07/06 00:38:19;;;;;;;377.67;311.53;;;;;;;24.80;57.46;99444.75;343771;28;924;-71
2022/07/06 00:38:29;;;;;;;377.23;314.08;;;;;;;24.82;57.33;99443.59;343853;28;2214;-71
2022/07/06 00:38:40;;;;;;;380.27;316.47;;;;;;;24.84;57.21;99435.41;345019;28;1333;-71
2022/07/06 00:38:50;;;;;;;382.97;319.03;;;;;;;24.86;57.20;99439.59;342316;28;1294;-71
2022/07/06 00:39:00;;;;;;;383.40;318.73;;;;;;;24.87;57.16;99435.94;344978;28;1266;-71
2022/07/06 00:39:11;;;;;;;383.83;319.17;;;;;;;24.89;57.08;99433.09;345154;28;852;-71
2022/07/06 00:39:21;;;;;;;382.30;313.83;;;;;;;24.90;57.07;99439.28;343565;28;1636;-71
2022/07/06 00:39:32;;;;;;;383.37;316.90;;;;;;;24.90;57.27;99434.78;342349;28;1216;-71
2022/07/06 00:39:43;;;;;;;383.65;318.05;;;;;;;24.92;57.32;99437.28;341302;28;2224;-71
2022/07/06 00:39:53;;;;;;;382.23;318.30;;;;;;;24.93;57.26;99433.63;342021;28;2108;-71
2022/07/06 00:40:04;;;;;;;379.77;313.33;;;;;;;24.93;57.10;99433.63;343696;28;1294;-71
2022/07/06 00:40:15;;;;;;;380.52;314.25;;;;;;;24.94;57.57;99435.31;343731;28;937;-71
2022/07/06 00:40:25;;;;;;;379.92;313.80;;;;;;;24.95;57.16;99436.97;343796;28;1007;-71
2022/07/06 00:40:35;;;;;;;381.50;313.63;;;;;;;24.95;57.01;99436.97;343710;28;1372;-71
2022/07/06 00:40:46;;;;;;;378.20;307.38;;;;;;;24.93;57.22;99434.47;342271;28;1267;-71
2022/07/06 00:40:56;;;;;;;379.07;307.77;;;;;;;24.87;56.99;99433.25;343626;28;1864;-71
2022/07/06 00:41:07;;;;;;;372.80;301.60;;;;;;;24.86;57.17;99431.56;342407;28;1007;-71
2022/07/06 00:41:17;;;;;;;371.75;300.52;;;;;;;24.87;57.15;99430.56;342429;28;871;-71
2022/07/06 00:41:28;;;;;;;372.40;302.03;;;;;;;24.87;57.49;99432.41;344404;28;1509;-71
2022/07/06 00:41:38;;;;;;;374.35;308.75;;;;;;;24.88;57.40;99432.25;345307;28;966;-71
2022/07/06 00:41:48;;;;;;;374.37;312.03;;;;;;;24.87;57.41;99435.09;345092;28;941;-71
2022/07/06 00:41:59;;;;;;;372.70;310.38;;;;;;;24.86;57.41;99428.91;344986;28;1310;-71
2022/07/06 00:42:09;;;;;;;375.53;314.23;;;;;;;24.86;57.56;99428.06;342455;28;992;-71
2022/07/06 00:42:20;;;;;;;376.60;312.83;;;;;;;24.88;57.31;99434.94;341113;29;1098;-71
2022/07/06 00:42:30;;;;;;;377.30;312.50;;;;;;;24.88;57.56;99432.25;341684;28;897;-71
2022/07/06 00:42:47;;;;;;;376.15;307.33;;;;;;;24.87;57.42;99427.06;342341;28;1242;-71
2022/07/06 00:42:58;;;;;;;377.63;306.85;;;;;;;24.86;57.44;99431.56;343609;28;1104;-71
2022/07/06 00:43:08;;;;;;;380.53;305.87;;;;;;;24.84;57.44;99430.06;343807;28;974;-71
2022/07/06 00:43:19;;;;;;;378.67;306.98;;;;;;;24.83;57.43;99428.38;342305;28;1196;-71
2022/07/06 00:43:45;;;;;;;375.37;304.47;;;;;;;24.83;57.68;99429.22;342364;28;925;-71
2022/07/06 00:43:56;;;;;;;376.63;309.33;;;;;;;24.84;57.54;99430.88;341028;29;1292;-71
2022/07/06 00:44:07;;;;;;;377.58;311.08;;;;;;;24.84;57.47;99430.06;342277;28;1196;-71
2022/07/06 00:44:18;;;;;;;372.75;303.83;;;;;;;24.85;57.40;99427.22;343747;28;829;-71
2022/07/06 00:44:28;;;;;;;373.50;304.50;;;;;;;24.86;57.38;99423.53;342485;28;1524;-71
2022/07/06 00:44:39;;;;;;;375.50;305.98;;;;;;;24.89;57.37;99427.75;343718;28;1051;-71
2022/07/06 00:44:50;;;;;;;376.67;310.50;;;;;;;24.91;57.47;99435.63;342400;28;1203;-71
2022/07/06 00:45:00;;;;;;;376.70;310.07;;;;;;;24.92;57.66;99426.59;343767;28;932;-71
2022/07/06 00:45:13;;;;;;;376.00;307.63;;;;;;;24.91;57.55;99425.75;342452;28;944;-71
2022/07/06 00:45:23;;;;;;;376.25;310.17;;;;;;;24.91;57.57;99427.59;344936;28;2191;-71
2022/07/06 00:45:34;;;;;;;376.50;313.85;;;;;;;24.92;57.51;99431.94;343382;28;1813;-71
2022/07/06 00:45:44;;;;;;;377.23;313.33;;;;;;;24.92;57.38;99427.44;343755;28;873;-71
2022/07/06 00:45:54;;;;;;;378.13;313.33;;;;;;;24.92;57.42;99426.59;343720;28;895;-71
2022/07/06 00:46:05;;;;;;;378.47;308.87;;;;;;;24.93;57.48;99428.25;342685;28;1350;-71
2022/07/06 00:46:15;;;;;;;375.90;301.40;;;;;;;24.94;57.34;99427.28;343697;28;1318;-71
2022/07/06 00:46:31;;;;;;;375.00;301.30;;;;;;;24.94;57.48;99429.94;341343;28;2474;-71
2022/07/06 00:46:41;;;;;;;373.23;304.67;;;;;;;24.92;57.62;99427.44;341634;28;972;-71
2022/07/06 00:46:52;;;;;;;373.67;307.00;;;;;;;24.90;57.51;99433.94;343650;28;1177;-71
2022/07/06 00:47:02;;;;;;;374.08;306.00;;;;;;;24.88;57.54;99429.56;343788;28;877;-71
2022/07/06 00:47:13;;;;;;;375.37;306.30;;;;;;;24.88;57.67;99432.25;345173;28;858;-71
2022/07/06 00:47:23;;;;;;;376.52;309.00;;;;;;;24.90;57.56;99428.59;343744;28;916;-71
2022/07/06 00:47:34;;;;;;;377.73;310.60;;;;;;;24.87;57.45;99425.22;342463;28;944;-71
2022/07/06 00:47:44;;;;;;;378.75;314.73;;;;;;;24.86;57.57;99428.91;343692;28;1325;-71
2022/07/06 00:47:55;;;;;;;378.03;312.20;;;;;;;24.90;57.82;99429.41;342314;28;1027;-71
2022/07/06 00:48:05;;;;;;;377.63;311.15;;;;;;;24.90;57.34;99431.25;342370;28;1647;-71
2022/07/06 00:48:16;;;;;;;377.90;313.27;;;;;;;24.88;57.85;99428.75;342399;28;979;-71
2022/07/06 00:48:27;;;;;;;378.85;315.55;;;;;;;24.88;57.72;99434.94;340980;29;1219;-71
2022/07/06 00:48:37;;;;;;;377.52;309.77;;;;;;;24.90;57.49;99423.22;340967;29;1500;-71
2022/07/06 00:48:47;;;;;;;376.70;307.87;;;;;;;24.86;57.77;99422.69;341099;29;877;-71
2022/07/06 00:48:58;;;;;;;373.75;306.45;;;;;;;24.85;57.97;99427.22;342289;28;950;-71